Time,TemperatureF,DewpointF,PressureIn,WindDirection,WindDirectionDegrees,WindSpeedMPH,WindSpeedGustMPH,Humidity,HourlyPrecipIn,Conditions,Clouds,dailyrainin,SoftwareType,DateUTC
2013-08-28 00:02:00,61.3,55.8,29.85,WNW,292,0.0,0.0,82,0.00,,,0.00,WUHU21623XXSP,2013-08-28 07:02:00,
2013-08-28 00:07:00,61.2,55.7,29.86,WNW,292,0.0,0.0,82,0.00,,,0.00,WUHU21623XXSP,2013-08-28 07:07:00,
2013-08-28 00:12:00,61.2,55.7,29.86,WNW,292,0.0,0.0,82,0.00,,,0.00,WUHU21623XXSP,2013-08-28 07:12:00,
2013-08-28 00:17:00,61.2,55.7,29.86,WNW,292,0.0,0.0,82,0.00,,,0.00,WUHU21623XXSP,2013-08-28 07:17:00,
2013-08-28 00:22:00,61.0,55.5,29.85,WNW,292,0.0,0.0,82,0.00,,,0.00,WUHU21623XXSP,2013-08-28 07:22:00,
2013-08-28 00:27:00,60.6,55.1,29.85,WNW,292,0.0,0.0,82,0.00,,,0.00,WUHU21623XXSP,2013-08-28 07:27:00,
2013-08-28 00:32:00,60.6,55.5,29.85,WNW,292,0.0,0.0,83,0.00,,,0.00,WUHU21623XXSP,2013-08-28 07:32:00,
2013-08-28 00:37:00,60.4,55.3,29.86,WNW,292,0.0,0.0,83,0.00,,,0.00,WUHU21623XXSP,2013-08-28 07:37:00,
2013-08-28 00:42:00,60.4,55.3,29.86,WNW,292,0.0,0.0,83,0.00,,,0.00,WUHU21623XXSP,2013-08-28 07:42:00,
2013-08-28 00:47:00,60.4,55.6,29.86,WNW,292,0.0,0.0,84,0.00,,,0.00,WUHU21623XXSP,2013-08-28 07:47:00,
2013-08-28 00:52:00,60.1,55.3,29.86,WNW,292,0.0,0.0,84,0.00,,,0.00,WUHU21623XXSP,2013-08-28 07:52:00,
2013-08-28 00:58:00,60.1,55.3,29.86,North,0,0.0,0.0,84,0.00,,,0.00,WUHU21623XXSP,2013-08-28 07:58:00,
2013-08-28 01:03:00,60.1,55.3,29.86,North,0,0.0,0.0,84,0.00,,,0.00,WUHU21623XXSP,2013-08-28 08:03:00,
2013-08-28 01:10:00,60.1,55.3,29.86,North,0,0.0,0.0,84,0.00,,,0.00,WUHU21623XXSP,2013-08-28 08:10:00,
2013-08-28 01:15:00,60.1,55.3,29.86,North,0,0.0,0.0,84,0.00,,,0.00,WUHU21623XXSP,2013-08-28 08:15:00,
2013-08-28 01:20:00,60.1,55.6,29.86,North,0,0.0,0.0,85,0.00,,,0.00,WUHU21623XXSP,2013-08-28 08:20:00,
2013-08-28 01:25:00,60.1,55.6,29.86,North,0,0.0,0.0,85,0.00,,,0.00,WUHU21623XXSP,2013-08-28 08:25:00,
2013-08-28 01:30:00,60.1,55.6,29.86,North,0,0.0,0.0,85,0.00,,,0.00,WUHU21623XXSP,2013-08-28 08:30:00,
2013-08-28 01:35:00,60.1,55.6,29.86,North,0,0.0,0.0,85,0.00,,,0.00,WUHU21623XXSP,2013-08-28 08:35:00,
2013-08-28 01:40:00,59.9,55.4,29.86,North,0,0.0,0.0,85,0.00,,,0.00,WUHU21623XXSP,2013-08-28 08:40:00,
2013-08-28 01:45:00,59.9,55.4,29.85,North,0,0.0,0.0,85,0.00,,,0.00,WUHU21623XXSP,2013-08-28 08:45:00,
2013-08-28 01:50:00,59.7,55.5,29.85,North,0,0.0,0.0,86,0.00,,,0.00,WUHU21623XXSP,2013-08-28 08:50:00,
2013-08-28 01:55:00,59.7,55.5,29.85,North,0,0.0,0.0,86,0.00,,,0.00,WUHU21623XXSP,2013-08-28 08:55:00,
2013-08-28 02:00:00,59.7,55.5,29.85,North,0,0.0,0.0,86,0.00,,,0.00,WUHU21623XXSP,2013-08-28 09:00:00,
2013-08-28 02:05:00,59.7,55.5,29.85,North,0,0.0,0.0,86,0.00,,,0.00,WUHU21623XXSP,2013-08-28 09:05:00,
2013-08-28 02:10:00,59.7,55.5,29.85,North,0,0.0,0.0,86,0.00,,,0.00,WUHU21623XXSP,2013-08-28 09:10:00,
2013-08-28 02:15:00,59.7,55.9,29.85,NNW,337,0.0,0.0,87,0.00,,,0.00,WUHU21623XXSP,2013-08-28 09:15:00,
2013-08-28 02:20:00,59.5,55.7,29.86,NNW,337,0.0,0.0,87,0.00,,,0.00,WUHU21623XXSP,2013-08-28 09:20:00,
2013-08-28 02:25:00,59.5,55.7,29.86,North,0,0.0,0.0,87,0.00,,,0.00,WUHU21623XXSP,2013-08-28 09:25:00,
2013-08-28 02:30:00,59.5,55.7,29.85,NNW,337,0.0,0.0,87,0.00,,,0.00,WUHU21623XXSP,2013-08-28 09:30:00,
2013-08-28 02:34:00,59.5,55.7,29.85,North,0,0.0,0.0,87,0.00,,,0.00,WUHU21623XXSP,2013-08-28 09:34:00,
2013-08-28 02:39:00,59.5,55.7,29.85,NNW,337,0.0,0.0,87,0.00,,,0.00,WUHU21623XXSP,2013-08-28 09:39:00,
2013-08-28 02:44:00,59.4,55.5,29.85,NNW,337,0.0,0.0,87,0.00,,,0.00,WUHU21623XXSP,2013-08-28 09:44:00,
2013-08-28 02:49:00,59.4,55.5,29.85,NNW,337,0.0,0.0,87,0.00,,,0.00,WUHU21623XXSP,2013-08-28 09:49:00,
2013-08-28 02:54:00,59.4,55.5,29.84,NNW,337,0.0,0.0,87,0.00,,,0.00,WUHU21623XXSP,2013-08-28 09:54:00,
2013-08-28 02:59:00,59.4,55.5,29.84,NNW,337,0.0,0.0,87,0.00,,,0.00,WUHU21623XXSP,2013-08-28 09:59:00,
2013-08-28 03:04:00,59.4,55.8,29.84,NNW,337,0.0,0.0,88,0.00,,,0.00,WUHU21623XXSP,2013-08-28 10:04:00,
2013-08-28 03:09:00,59.4,55.8,29.84,NNW,337,0.0,0.0,88,0.00,,,0.00,WUHU21623XXSP,2013-08-28 10:09:00,
2013-08-28 03:14:00,59.4,55.8,29.84,NNW,337,0.0,0.0,88,0.00,,,0.00,WUHU21623XXSP,2013-08-28 10:14:00,
2013-08-28 03:19:00,59.4,55.8,29.84,NNW,337,0.0,0.0,88,0.00,,,0.00,WUHU21623XXSP,2013-08-28 10:19:00,
2013-08-28 03:24:00,59.4,55.8,29.84,NNW,337,0.0,0.0,88,0.00,,,0.00,WUHU21623XXSP,2013-08-28 10:24:00,
2013-08-28 03:29:00,59.4,55.8,29.85,NNW,337,0.0,0.0,88,0.00,,,0.00,WUHU21623XXSP,2013-08-28 10:29:00,
2013-08-28 03:34:00,59.2,55.7,29.85,NNW,337,0.0,0.0,88,0.00,,,0.00,WUHU21623XXSP,2013-08-28 10:34:00,
2013-08-28 03:39:00,59.2,55.8,29.86,NNW,337,0.0,0.0,88,0.00,,,0.00,WUHU21623XXSP,2013-08-28 10:39:00,
2013-08-28 03:44:00,59.4,55.8,29.86,NNW,337,0.0,0.0,88,0.00,,,0.00,WUHU21623XXSP,2013-08-28 10:44:00,
2013-08-28 03:49:00,59.5,56.0,29.85,NNW,337,0.0,0.0,88,0.00,,,0.00,WUHU21623XXSP,2013-08-28 10:49:00,
2013-08-28 03:54:00,59.5,56.0,29.86,NNW,337,0.0,0.0,88,0.00,,,0.00,WUHU21623XXSP,2013-08-28 10:54:00,
2013-08-28 03:59:00,59.7,56.5,29.86,NNW,337,0.0,0.0,89,0.00,,,0.00,WUHU21623XXSP,2013-08-28 10:59:00,
2013-08-28 04:04:00,59.7,56.2,29.86,NNW,337,0.0,0.0,88,0.00,,,0.00,WUHU21623XXSP,2013-08-28 11:04:00,
2013-08-28 04:09:00,59.5,56.0,29.86,NNW,337,0.0,0.0,88,0.00,,,0.00,WUHU21623XXSP,2013-08-28 11:09:00,
2013-08-28 04:14:00,59.5,56.0,29.86,NNW,337,0.0,0.0,88,0.00,,,0.00,WUHU21623XXSP,2013-08-28 11:14:00,
2013-08-28 04:19:00,59.5,56.0,29.86,NNW,337,0.0,0.0,88,0.00,,,0.00,WUHU21623XXSP,2013-08-28 11:19:00,
2013-08-28 04:24:00,59.5,56.3,29.87,NNW,337,0.0,0.0,89,0.00,,,0.00,WUHU21623XXSP,2013-08-28 11:24:00,
2013-08-28 04:29:00,59.5,56.3,29.86,NNW,337,0.0,0.0,89,0.02,,,0.02,WUHU21623XXSP,2013-08-28 11:29:00,
2013-08-28 04:34:00,59.4,56.2,29.86,NNW,337,0.0,0.0,89,0.02,,,0.02,WUHU21623XXSP,2013-08-28 11:34:00,
2013-08-28 04:39:00,59.4,56.2,29.86,NNW,337,0.0,0.0,89,0.02,,,0.02,WUHU21623XXSP,2013-08-28 11:39:00,
2013-08-28 04:44:00,59.5,56.3,29.87,NNW,337,0.0,0.0,89,0.02,,,0.02,WUHU21623XXSP,2013-08-28 11:44:00,
2013-08-28 04:49:00,59.5,56.3,29.87,NNW,337,0.0,0.0,89,0.02,,,0.02,WUHU21623XXSP,2013-08-28 11:49:00,
2013-08-28 04:54:00,59.5,56.3,29.87,NNW,337,0.0,0.0,89,0.02,,,0.02,WUHU21623XXSP,2013-08-28 11:54:00,
2013-08-28 04:59:00,59.5,56.3,29.86,NNW,337,0.0,0.0,89,0.04,,,0.04,WUHU21623XXSP,2013-08-28 11:59:00,
2013-08-28 05:04:00,59.5,56.3,29.86,NNW,337,0.0,0.0,89,0.04,,,0.04,WUHU21623XXSP,2013-08-28 12:04:00,
2013-08-28 05:09:00,59.5,56.7,29.86,NNW,337,0.0,0.0,90,0.06,,,0.06,WUHU21623XXSP,2013-08-28 12:09:00,
2013-08-28 05:14:00,59.5,56.7,29.86,NNW,337,0.0,0.0,90,0.06,,,0.06,WUHU21623XXSP,2013-08-28 12:14:00,
2013-08-28 05:19:00,59.5,56.7,29.87,WSW,247,0.0,0.0,90,0.06,,,0.06,WUHU21623XXSP,2013-08-28 12:19:00,
2013-08-28 05:24:00,59.5,56.7,29.87,WSW,247,0.0,0.0,90,0.04,,,0.06,WUHU21623XXSP,2013-08-28 12:24:00,
2013-08-28 05:29:00,59.5,56.7,29.87,WSW,247,0.0,0.0,90,0.06,,,0.08,WUHU21623XXSP,2013-08-28 12:29:00,
2013-08-28 05:34:00,59.5,56.7,29.87,WSW,247,0.0,0.0,90,0.06,,,0.08,WUHU21623XXSP,2013-08-28 12:34:00,
2013-08-28 05:39:00,59.5,56.7,29.86,WSW,247,0.0,0.0,90,0.06,,,0.08,WUHU21623XXSP,2013-08-28 12:39:00,
2013-08-28 05:44:00,59.5,56.7,29.87,WSW,247,0.0,0.0,90,0.06,,,0.08,WUHU21623XXSP,2013-08-28 12:44:00,
2013-08-28 05:49:00,59.5,56.7,29.87,West,270,0.0,0.0,90,0.06,,,0.08,WUHU21623XXSP,2013-08-28 12:49:00,
2013-08-28 05:55:00,59.5,56.7,29.88,West,270,0.0,0.0,90,0.06,,,0.10,WUHU21623XXSP,2013-08-28 12:55:00,
2013-08-28 06:00:00,59.5,56.7,29.88,West,270,0.0,0.0,90,0.06,,,0.10,WUHU21623XXSP,2013-08-28 13:00:00,
2013-08-28 06:05:00,59.5,56.7,29.88,West,270,0.0,0.0,90,0.06,,,0.10,WUHU21623XXSP,2013-08-28 13:05:00,
2013-08-28 06:10:00,59.5,56.7,29.88,West,270,0.0,0.0,90,0.06,,,0.12,WUHU21623XXSP,2013-08-28 13:10:00,
2013-08-28 06:15:00,59.5,56.7,29.88,WSW,247,0.0,0.0,90,0.08,,,0.14,WUHU21623XXSP,2013-08-28 13:15:00,
2013-08-28 06:20:00,59.5,56.7,29.88,WSW,247,0.0,0.0,90,0.10,,,0.16,WUHU21623XXSP,2013-08-28 13:20:00,
2013-08-28 06:25:00,59.7,56.8,29.87,WSW,247,0.0,0.0,90,0.08,,,0.16,WUHU21623XXSP,2013-08-28 13:25:00,
2013-08-28 06:30:00,59.7,56.8,29.88,WSW,247,0.0,0.0,90,0.08,,,0.16,WUHU21623XXSP,2013-08-28 13:30:00,
2013-08-28 06:35:00,59.9,57.0,29.87,WSW,247,0.0,0.0,90,0.08,,,0.16,WUHU21623XXSP,2013-08-28 13:35:00,
2013-08-28 06:40:00,59.9,57.0,29.88,WSW,247,0.0,0.0,90,0.10,,,0.18,WUHU21623XXSP,2013-08-28 13:40:00,
2013-08-28 06:45:00,59.9,57.0,29.88,SW,225,0.0,0.0,90,0.10,,,0.18,WUHU21623XXSP,2013-08-28 13:45:00,
2013-08-28 06:50:00,59.9,57.0,29.88,SW,225,0.0,0.0,90,0.10,,,0.18,WUHU21623XXSP,2013-08-28 13:50:00,
2013-08-28 06:55:00,59.9,57.0,29.88,SW,225,0.0,0.0,90,0.08,,,0.18,WUHU21623XXSP,2013-08-28 13:55:00,
2013-08-28 07:00:00,59.9,57.0,29.87,SW,225,0.0,0.0,90,0.08,,,0.18,WUHU21623XXSP,2013-08-28 14:00:00,
2013-08-28 07:05:00,60.1,57.2,29.88,SW,225,0.0,0.0,90,0.08,,,0.18,WUHU21623XXSP,2013-08-28 14:05:00,
2013-08-28 07:10:00,60.1,57.2,29.88,SW,225,0.0,0.0,90,0.06,,,0.18,WUHU21623XXSP,2013-08-28 14:10:00,
2013-08-28 07:15:00,60.1,57.5,29.88,SW,225,0.0,0.0,91,0.04,,,0.18,WUHU21623XXSP,2013-08-28 14:15:00,
2013-08-28 07:20:00,60.1,57.5,29.88,SW,225,0.0,0.0,91,0.02,,,0.18,WUHU21623XXSP,2013-08-28 14:20:00,
2013-08-28 07:25:00,60.4,57.8,29.88,West,270,0.0,0.0,91,0.02,,,0.18,WUHU21623XXSP,2013-08-28 14:25:00,
2013-08-28 07:30:00,60.4,57.8,29.88,WNW,292,0.0,0.0,91,0.02,,,0.18,WUHU21623XXSP,2013-08-28 14:30:00,
2013-08-28 07:35:00,60.6,58.3,29.88,NNW,337,0.0,0.0,92,0.02,,,0.18,WUHU21623XXSP,2013-08-28 14:35:00,
2013-08-28 07:40:00,60.6,58.3,29.88,NE,45,0.0,0.0,92,0.00,,,0.18,WUHU21623XXSP,2013-08-28 14:40:00,
2013-08-28 07:45:00,60.6,58.3,29.89,NE,45,0.0,0.0,92,0.00,,,0.18,WUHU21623XXSP,2013-08-28 14:45:00,
2013-08-28 07:50:00,60.8,58.5,29.88,NE,45,0.0,0.0,92,0.00,,,0.18,WUHU21623XXSP,2013-08-28 14:50:00,
2013-08-28 07:55:00,61.0,58.7,29.88,NE,45,0.0,0.0,92,0.00,,,0.18,WUHU21623XXSP,2013-08-28 14:55:00,
2013-08-28 08:00:00,61.0,58.7,29.88,NE,45,0.0,0.0,92,0.00,,,0.18,WUHU21623XXSP,2013-08-28 15:00:00,
2013-08-28 08:05:00,61.3,59.0,29.89,NE,45,0.0,0.0,92,0.00,,,0.18,WUHU21623XXSP,2013-08-28 15:05:00,
2013-08-28 08:10:00,61.5,59.2,29.88,NE,45,0.0,0.0,92,0.00,,,0.18,WUHU21623XXSP,2013-08-28 15:10:00,
2013-08-28 08:15:00,61.9,59.6,29.88,NE,45,0.0,0.0,92,0.00,,,0.18,WUHU21623XXSP,2013-08-28 15:15:00,
2013-08-28 08:20:00,62.2,59.9,29.89,NE,45,0.0,0.0,92,0.00,,,0.18,WUHU21623XXSP,2013-08-28 15:20:00,
2013-08-28 08:25:00,62.4,60.4,29.88,NNE,22,0.0,0.0,93,0.00,,,0.18,WUHU21623XXSP,2013-08-28 15:25:00,
2013-08-28 08:30:00,62.6,60.6,29.88,NNE,22,0.0,0.0,93,0.00,,,0.18,WUHU21623XXSP,2013-08-28 15:30:00,
2013-08-28 08:35:00,62.8,60.8,29.89,NNE,22,0.0,0.0,93,0.00,,,0.18,WUHU21623XXSP,2013-08-28 15:35:00,
2013-08-28 08:40:00,63.1,61.1,29.88,NNE,22,0.0,0.0,93,0.00,,,0.18,WUHU21623XXSP,2013-08-28 15:40:00,
2013-08-28 08:45:00,63.5,61.5,29.89,NNE,22,0.0,0.0,93,0.00,,,0.18,WUHU21623XXSP,2013-08-28 15:45:00,
2013-08-28 08:50:00,63.7,61.4,29.89,SSW,202,0.0,0.0,92,0.00,,,0.18,WUHU21623XXSP,2013-08-28 15:50:00,
2013-08-28 08:55:00,64.0,61.7,29.88,SSW,202,0.0,0.0,92,0.00,,,0.18,WUHU21623XXSP,2013-08-28 15:55:00,
2013-08-28 09:00:00,64.2,61.9,29.89,SW,225,0.0,0.0,92,0.00,,,0.18,WUHU21623XXSP,2013-08-28 16:00:00,
2013-08-28 09:05:00,64.6,62.3,29.89,SW,225,0.0,0.0,92,0.00,,,0.18,WUHU21623XXSP,2013-08-28 16:05:00,
2013-08-28 09:10:00,64.9,62.9,29.89,SW,225,0.0,0.0,93,0.00,,,0.18,WUHU21623XXSP,2013-08-28 16:10:00,
2013-08-28 09:15:00,65.1,62.7,29.89,South,180,0.0,0.0,92,0.00,,,0.18,WUHU21623XXSP,2013-08-28 16:15:00,
2013-08-28 09:20:00,65.5,63.1,29.89,South,180,0.0,0.0,92,0.00,,,0.18,WUHU21623XXSP,2013-08-28 16:20:00,
2013-08-28 09:25:00,65.7,63.2,29.89,South,180,0.0,0.0,92,0.00,,,0.18,WUHU21623XXSP,2013-08-28 16:25:00,
2013-08-28 09:30:00,65.8,63.4,29.89,SSE,157,0.0,0.0,92,0.00,,,0.18,WUHU21623XXSP,2013-08-28 16:30:00,
2013-08-28 09:35:00,66.0,63.3,29.89,SSE,157,0.0,0.0,91,0.00,,,0.18,WUHU21623XXSP,2013-08-28 16:35:00,
2013-08-28 09:40:00,66.0,63.3,29.88,WSW,247,0.0,0.0,91,0.00,,,0.18,WUHU21623XXSP,2013-08-28 16:40:00,
2013-08-28 09:45:00,66.0,63.3,29.89,SW,225,0.0,0.0,91,0.00,,,0.18,WUHU21623XXSP,2013-08-28 16:45:00,
2013-08-28 09:50:00,66.0,63.3,29.89,SW,225,0.0,0.0,91,0.00,,,0.18,WUHU21623XXSP,2013-08-28 16:50:00,
2013-08-28 09:55:00,66.2,63.4,29.89,SW,225,0.0,0.0,91,0.00,,,0.18,WUHU21623XXSP,2013-08-28 16:55:00,
2013-08-28 10:00:00,66.4,63.6,29.89,SW,225,0.0,0.0,91,0.00,,,0.18,WUHU21623XXSP,2013-08-28 17:00:00,
2013-08-28 10:05:00,66.4,63.6,29.89,SW,225,0.0,0.0,91,0.00,,,0.18,WUHU21623XXSP,2013-08-28 17:05:00,
2013-08-28 10:10:00,66.6,63.5,29.90,SW,225,0.0,0.0,90,0.00,,,0.18,WUHU21623XXSP,2013-08-28 17:10:00,
2013-08-28 10:15:00,66.7,63.7,29.89,SW,225,0.0,0.0,90,0.00,,,0.18,WUHU21623XXSP,2013-08-28 17:15:00,
2013-08-28 10:20:00,67.3,64.2,29.89,SSW,202,0.0,0.0,90,0.00,,,0.18,WUHU21623XXSP,2013-08-28 17:20:00,
2013-08-28 10:25:00,67.8,64.8,29.89,SSE,157,0.0,0.0,90,0.00,,,0.18,WUHU21623XXSP,2013-08-28 17:25:00,
2013-08-28 10:30:00,68.5,65.5,29.90,SSE,157,0.0,0.0,90,0.00,,,0.18,WUHU21623XXSP,2013-08-28 17:30:00,
2013-08-28 10:35:00,69.3,65.9,29.90,South,180,0.0,0.0,89,0.00,,,0.18,WUHU21623XXSP,2013-08-28 17:35:00,
2013-08-28 10:40:00,69.6,65.9,29.90,SSE,157,0.0,0.0,88,0.00,,,0.18,WUHU21623XXSP,2013-08-28 17:40:00,
2013-08-28 10:45:00,70.0,66.2,29.90,SW,225,0.0,0.0,88,0.00,,,0.18,WUHU21623XXSP,2013-08-28 17:45:00,
2013-08-28 10:50:00,70.2,66.1,29.90,SW,225,0.0,0.0,87,0.00,,,0.18,WUHU21623XXSP,2013-08-28 17:50:00,
2013-08-28 10:55:00,70.5,66.4,29.90,SSW,202,0.0,0.0,87,0.00,,,0.18,WUHU21623XXSP,2013-08-28 17:55:00,
2013-08-28 11:00:00,70.9,66.8,29.90,SSE,157,0.0,0.0,87,0.00,,,0.18,WUHU21623XXSP,2013-08-28 18:00:00,
2013-08-28 11:05:00,71.2,66.8,29.90,South,180,0.0,0.0,86,0.00,,,0.18,WUHU21623XXSP,2013-08-28 18:05:00,
2013-08-28 11:10:00,71.8,67.0,29.91,SSW,202,0.0,0.0,85,0.00,,,0.18,WUHU21623XXSP,2013-08-28 18:10:00,
2013-08-28 11:15:00,72.3,67.2,29.90,SSE,157,0.0,0.0,84,0.00,,,0.18,WUHU21623XXSP,2013-08-28 18:15:00,
2013-08-28 11:20:00,73.0,67.9,29.90,SSW,202,0.0,0.0,84,0.00,,,0.18,WUHU21623XXSP,2013-08-28 18:20:00,
2013-08-28 11:25:00,73.9,68.5,29.90,SSE,157,0.0,0.0,83,0.00,,,0.18,WUHU21623XXSP,2013-08-28 18:25:00,
2013-08-28 11:30:00,74.8,68.4,29.90,SSE,157,0.0,0.0,80,0.00,,,0.18,WUHU21623XXSP,2013-08-28 18:30:00,
2013-08-28 11:36:00,75.4,68.5,29.90,SE,135,0.0,0.0,79,0.00,,,0.18,WUHU21623XXSP,2013-08-28 18:36:00,
2013-08-28 11:41:00,75.7,67.2,29.90,NNE,22,0.0,0.0,75,0.00,,,0.18,WUHU21623XXSP,2013-08-28 18:41:00,
2013-08-28 11:46:00,76.1,67.2,29.90,NE,45,0.0,0.0,74,0.00,,,0.18,WUHU21623XXSP,2013-08-28 18:46:00,
2013-08-28 11:51:00,76.5,67.2,29.89,ESE,112,0.0,0.0,73,0.00,,,0.18,WUHU21623XXSP,2013-08-28 18:51:00,
2013-08-28 11:56:00,76.8,66.8,29.89,ENE,67,0.0,0.0,71,0.00,,,0.18,WUHU21623XXSP,2013-08-28 18:56:00,
2013-08-28 12:01:00,77.4,67.3,29.90,East,90,0.0,0.0,71,0.00,,,0.18,WUHU21623XXSP,2013-08-28 19:01:00,
2013-08-28 12:06:00,78.1,68.3,29.89,SE,135,0.0,0.0,72,0.00,,,0.18,WUHU21623XXSP,2013-08-28 19:06:00,
2013-08-28 12:11:00,78.4,67.4,29.90,NNE,22,0.0,0.0,69,0.00,,,0.18,WUHU21623XXSP,2013-08-28 19:11:00,
2013-08-28 12:16:00,78.6,68.0,29.89,SW,225,0.0,0.0,70,0.00,,,0.18,WUHU21623XXSP,2013-08-28 19:16:00,
2013-08-28 12:21:00,79.5,68.5,29.89,NW,315,0.0,0.0,69,0.00,,,0.18,WUHU21623XXSP,2013-08-28 19:21:00,
2013-08-28 12:26:00,79.9,67.9,29.89,SSW,202,0.0,0.0,67,0.00,,,0.18,WUHU21623XXSP,2013-08-28 19:26:00,
2013-08-28 12:31:00,80.4,68.5,29.89,SW,225,0.0,0.0,67,0.00,,,0.18,WUHU21623XXSP,2013-08-28 19:31:00,
2013-08-28 12:36:00,81.3,68.4,29.89,SSW,202,0.0,0.0,65,0.00,,,0.18,WUHU21623XXSP,2013-08-28 19:36:00,
2013-08-28 12:41:00,82.0,68.1,29.89,SW,225,0.0,0.0,63,0.00,,,0.18,WUHU21623XXSP,2013-08-28 19:41:00,
2013-08-28 12:46:00,82.6,68.2,29.89,South,180,0.0,0.0,62,0.00,,,0.18,WUHU21623XXSP,2013-08-28 19:46:00,
2013-08-28 12:51:00,82.9,67.6,29.89,SE,135,0.0,0.0,60,0.00,,,0.18,WUHU21623XXSP,2013-08-28 19:51:00,
2013-08-28 12:56:00,82.6,65.7,29.90,SE,135,0.0,0.0,57,0.00,,,0.18,WUHU21623XXSP,2013-08-28 19:56:00,
2013-08-28 13:01:00,82.6,66.2,29.90,WSW,247,0.0,0.0,58,0.00,,,0.18,WUHU21623XXSP,2013-08-28 20:01:00,
2013-08-28 13:06:00,83.5,67.7,29.89,WNW,292,0.0,0.0,59,0.00,,,0.18,WUHU21623XXSP,2013-08-28 20:06:00,
2013-08-28 13:11:00,84.0,66.1,29.89,WNW,292,0.0,0.0,55,0.00,,,0.18,WUHU21623XXSP,2013-08-28 20:11:00,
2013-08-28 13:16:00,84.4,66.5,29.90,SSW,202,0.0,0.0,55,0.00,,,0.18,WUHU21623XXSP,2013-08-28 20:16:00,
2013-08-28 13:21:00,84.6,65.6,29.90,ESE,112,0.0,0.0,53,0.00,,,0.18,WUHU21623XXSP,2013-08-28 20:21:00,
2013-08-28 13:26:00,85.1,67.1,29.90,SE,135,0.0,0.0,55,0.00,,,0.18,WUHU21623XXSP,2013-08-28 20:26:00,
2013-08-28 13:31:00,85.8,66.2,29.90,ESE,112,0.7,1.8,52,0.00,,,0.18,WUHU21623XXSP,2013-08-28 20:31:00,
2013-08-28 13:36:00,85.8,66.2,29.90,SE,135,0.0,1.8,52,0.00,,,0.18,WUHU21623XXSP,2013-08-28 20:36:00,
2013-08-28 13:41:00,85.8,66.2,29.90,South,180,0.0,4.5,52,0.00,,,0.18,WUHU21623XXSP,2013-08-28 20:41:00,
2013-08-28 13:46:00,86.5,66.8,29.90,WNW,292,0.0,6.0,52,0.00,,,0.18,WUHU21623XXSP,2013-08-28 20:46:00,
2013-08-28 13:51:00,87.1,66.8,29.89,WSW,247,1.3,6.0,51,0.00,,,0.18,WUHU21623XXSP,2013-08-28 20:51:00,
2013-08-28 13:56:00,87.4,66.0,29.90,SSE,157,4.5,6.0,49,0.00,,,0.18,WUHU21623XXSP,2013-08-28 20:56:00,
2013-08-28 14:01:00,87.4,66.0,29.89,South,180,1.3,6.0,49,0.00,,,0.18,WUHU21623XXSP,2013-08-28 21:01:00,
2013-08-28 14:06:00,87.4,66.0,29.90,ENE,67,0.0,3.8,49,0.00,,,0.18,WUHU21623XXSP,2013-08-28 21:06:00,
2013-08-28 14:11:00,87.1,65.6,29.89,WSW,247,0.0,3.8,49,0.00,,,0.18,WUHU21623XXSP,2013-08-28 21:11:00,
2013-08-28 14:16:00,86.7,64.7,29.89,NNE,22,0.0,0.9,48,0.00,,,0.18,WUHU21623XXSP,2013-08-28 21:16:00,
2013-08-28 14:21:00,86.7,65.3,29.89,NW,315,4.0,4.0,49,0.00,,,0.18,WUHU21623XXSP,2013-08-28 21:21:00,
2013-08-28 14:26:00,87.1,65.6,29.89,SE,135,0.4,4.0,49,0.00,,,0.18,WUHU21623XXSP,2013-08-28 21:26:00,
2013-08-28 14:31:00,87.6,66.1,29.89,East,90,0.0,3.8,49,0.00,,,0.18,WUHU21623XXSP,2013-08-28 21:31:00,
2013-08-28 14:36:00,88.2,65.3,29.89,SSW,202,5.1,5.1,47,0.00,,,0.18,WUHU21623XXSP,2013-08-28 21:36:00,
2013-08-28 14:41:00,88.5,65.6,29.89,WSW,247,3.6,5.1,47,0.00,,,0.18,WUHU21623XXSP,2013-08-28 21:41:00,
2013-08-28 14:46:00,88.5,65.6,29.89,West,270,0.0,5.4,47,0.00,,,0.18,WUHU21623XXSP,2013-08-28 21:46:00,
2013-08-28 14:51:00,88.3,64.8,29.88,South,180,0.0,5.4,46,0.00,,,0.18,WUHU21623XXSP,2013-08-28 21:51:00,
2013-08-28 14:56:00,88.3,65.5,29.88,SSE,157,0.9,5.1,47,0.00,,,0.18,WUHU21623XXSP,2013-08-28 21:56:00,
2013-08-28 15:01:00,88.7,65.8,29.88,SSW,202,1.3,5.1,47,0.00,,,0.18,WUHU21623XXSP,2013-08-28 22:01:00,
2013-08-28 15:06:00,88.9,65.3,29.88,ESE,112,0.0,4.0,46,0.00,,,0.18,WUHU21623XXSP,2013-08-28 22:06:00,
2013-08-28 15:11:00,88.9,64.7,29.88,WNW,292,0.0,4.0,45,0.00,,,0.18,WUHU21623XXSP,2013-08-28 22:11:00,
2013-08-28 15:16:00,88.7,65.2,29.89,SSE,157,2.5,3.4,46,0.00,,,0.18,WUHU21623XXSP,2013-08-28 22:16:00,
2013-08-28 15:21:00,88.7,63.9,29.88,SE,135,0.0,3.6,44,0.00,,,0.18,WUHU21623XXSP,2013-08-28 22:21:00,
2013-08-28 15:26:00,88.3,64.8,29.88,SSW,202,0.0,3.6,46,0.00,,,0.18,WUHU21623XXSP,2013-08-28 22:26:00,
2013-08-28 15:31:00,88.3,64.8,29.88,SSW,202,0.0,2.5,46,0.00,,,0.18,WUHU21623XXSP,2013-08-28 22:31:00,
2013-08-28 15:36:00,88.0,64.5,29.88,SSE,157,0.0,2.9,46,0.00,,,0.18,WUHU21623XXSP,2013-08-28 22:36:00,
2013-08-28 15:41:00,88.0,64.5,29.88,WSW,247,0.0,4.0,46,0.00,,,0.18,WUHU21623XXSP,2013-08-28 22:41:00,
2013-08-28 15:46:00,87.8,63.8,29.88,SSE,157,0.0,4.0,45,0.00,,,0.18,WUHU21623XXSP,2013-08-28 22:46:00,
2013-08-28 15:51:00,87.6,63.6,29.88,SSW,202,0.0,3.6,45,0.00,,,0.18,WUHU21623XXSP,2013-08-28 22:51:00,
2013-08-28 15:56:00,87.6,64.2,29.88,SSW,202,1.1,3.4,46,0.00,,,0.18,WUHU21623XXSP,2013-08-28 22:56:00,
2013-08-28 16:01:00,87.6,64.2,29.88,South,180,0.0,3.4,46,0.00,,,0.18,WUHU21623XXSP,2013-08-28 23:01:00,
2013-08-28 16:06:00,87.6,63.6,29.88,SSE,157,0.0,2.9,45,0.00,,,0.18,WUHU21623XXSP,2013-08-28 23:06:00,
2013-08-28 16:11:00,87.6,64.2,29.88,SSE,157,1.6,3.1,46,0.00,,,0.18,WUHU21623XXSP,2013-08-28 23:11:00,
2013-08-28 16:17:00,87.6,64.2,29.88,WSW,247,1.8,3.8,46,0.00,,,0.18,WUHU21623XXSP,2013-08-28 23:17:00,
2013-08-28 16:22:00,87.6,63.6,29.88,SSW,202,2.9,4.9,45,0.00,,,0.18,WUHU21623XXSP,2013-08-28 23:22:00,
2013-08-28 16:27:00,87.3,63.3,29.88,SSE,157,0.0,4.9,45,0.00,,,0.18,WUHU21623XXSP,2013-08-28 23:27:00,
2013-08-28 16:32:00,86.7,62.2,29.88,SW,225,0.4,1.8,44,0.00,,,0.18,WUHU21623XXSP,2013-08-28 23:32:00,
2013-08-28 16:37:00,86.2,62.3,29.88,WSW,247,0.0,2.7,45,0.00,,,0.18,WUHU21623XXSP,2013-08-28 23:37:00,
2013-08-28 16:42:00,85.8,62.6,29.88,SW,225,1.1,2.7,46,0.00,,,0.18,WUHU21623XXSP,2013-08-28 23:42:00,
2013-08-28 16:47:00,85.6,62.5,29.88,SW,225,0.0,1.1,46,0.00,,,0.18,WUHU21623XXSP,2013-08-28 23:47:00,
2013-08-28 16:52:00,85.6,62.5,29.87,SW,225,0.0,1.6,46,0.00,,,0.18,WUHU21623XXSP,2013-08-28 23:52:00,
2013-08-28 16:57:00,85.6,63.1,29.88,South,180,0.0,1.6,47,0.00,,,0.18,WUHU21623XXSP,2013-08-28 23:57:00,
2013-08-28 17:02:00,85.6,62.5,29.87,South,180,1.3,2.9,46,0.00,,,0.18,WUHU21623XXSP,2013-08-29 00:02:00,
2013-08-28 17:07:00,85.3,62.8,29.87,SSW,202,0.0,2.9,47,0.00,,,0.18,WUHU21623XXSP,2013-08-29 00:07:00,
2013-08-28 17:12:00,85.3,62.8,29.87,South,180,0.0,2.5,47,0.00,,,0.18,WUHU21623XXSP,2013-08-29 00:12:00,
2013-08-28 17:17:00,85.3,62.8,29.87,SSW,202,0.0,2.5,47,0.00,,,0.18,WUHU21623XXSP,2013-08-29 00:17:00,
2013-08-28 17:22:00,85.1,62.6,29.87,South,180,0.0,2.5,47,0.00,,,0.18,WUHU21623XXSP,2013-08-29 00:22:00,
2013-08-28 17:27:00,85.1,62.6,29.87,SW,225,0.0,0.9,47,0.00,,,0.18,WUHU21623XXSP,2013-08-29 00:27:00,
2013-08-28 17:32:00,84.7,62.3,29.87,West,270,0.0,0.9,47,0.00,,,0.18,WUHU21623XXSP,2013-08-29 00:32:00,
2013-08-28 17:37:00,84.7,62.3,29.87,SSW,202,0.0,1.6,47,0.00,,,0.18,WUHU21623XXSP,2013-08-29 00:37:00,
2013-08-28 17:42:00,84.6,61.5,29.87,WSW,247,0.0,1.8,46,0.00,,,0.18,WUHU21623XXSP,2013-08-29 00:42:00,
2013-08-28 17:47:00,84.0,61.6,29.87,SW,225,0.0,1.8,47,0.00,,,0.18,WUHU21623XXSP,2013-08-29 00:47:00,
2013-08-28 17:52:00,83.5,61.1,29.87,SW,225,0.0,0.9,47,0.00,,,0.18,WUHU21623XXSP,2013-08-29 00:52:00,
2013-08-28 17:57:00,83.1,61.4,29.88,WSW,247,0.0,1.6,48,0.00,,,0.18,WUHU21623XXSP,2013-08-29 00:57:00,
2013-08-28 18:02:00,82.6,61.4,29.88,WSW,247,0.0,1.6,49,0.00,,,0.18,WUHU21623XXSP,2013-08-29 01:02:00,
2013-08-28 18:07:00,82.0,60.9,29.88,WSW,247,0.0,0.0,49,0.00,,,0.18,WUHU21623XXSP,2013-08-29 01:07:00,
2013-08-28 18:12:00,81.7,61.2,29.87,WSW,247,0.0,0.0,50,0.00,,,0.18,WUHU21623XXSP,2013-08-29 01:12:00,
2013-08-28 18:17:00,81.1,60.7,29.87,WSW,247,0.0,0.0,50,0.00,,,0.18,WUHU21623XXSP,2013-08-29 01:17:00,
2013-08-28 18:22:00,80.4,61.1,29.88,WSW,247,0.0,0.0,52,0.00,,,0.18,WUHU21623XXSP,2013-08-29 01:22:00,
2013-08-28 18:27:00,80.2,61.0,29.88,NNW,337,0.0,0.7,52,0.00,,,0.18,WUHU21623XXSP,2013-08-29 01:27:00,
2013-08-28 18:32:00,79.9,61.2,29.88,NNW,337,0.0,0.7,53,0.00,,,0.18,WUHU21623XXSP,2013-08-29 01:32:00,
2013-08-28 18:37:00,79.3,61.2,29.87,NNE,22,0.0,0.0,54,0.00,,,0.18,WUHU21623XXSP,2013-08-29 01:37:00,
2013-08-28 18:42:00,78.6,61.1,29.87,NNE,22,0.0,0.0,55,0.00,,,0.18,WUHU21623XXSP,2013-08-29 01:42:00,
2013-08-28 18:47:00,78.4,61.4,29.88,NNE,22,0.0,0.0,56,0.00,,,0.18,WUHU21623XXSP,2013-08-29 01:47:00,
2013-08-28 18:52:00,78.4,62.5,29.87,North,0,0.0,0.0,58,0.00,,,0.18,WUHU21623XXSP,2013-08-29 01:52:00,
2013-08-28 18:57:00,77.9,61.9,29.87,North,0,0.0,0.0,58,0.00,,,0.18,WUHU21623XXSP,2013-08-29 01:57:00,
2013-08-28 19:02:00,77.5,62.6,29.87,North,0,0.0,0.0,60,0.00,,,0.18,WUHU21623XXSP,2013-08-29 02:02:00,
2013-08-28 19:07:00,77.4,62.9,29.88,North,0,0.0,0.0,61,0.00,,,0.18,WUHU21623XXSP,2013-08-29 02:07:00,
2013-08-28 19:12:00,77.0,62.5,29.87,North,0,0.0,0.0,61,0.00,,,0.18,WUHU21623XXSP,2013-08-29 02:12:00,
2013-08-28 19:17:00,76.8,62.3,29.88,North,0,0.0,0.0,61,0.00,,,0.18,WUHU21623XXSP,2013-08-29 02:17:00,
2013-08-28 19:22:00,76.5,62.5,29.87,North,0,0.0,0.0,62,0.00,,,0.18,WUHU21623XXSP,2013-08-29 02:22:00,
2013-08-28 19:27:00,76.1,62.6,29.87,North,0,0.0,0.0,63,0.00,,,0.18,WUHU21623XXSP,2013-08-29 02:27:00,
2013-08-28 19:32:00,75.7,62.2,29.87,North,0,0.0,0.0,63,0.00,,,0.18,WUHU21623XXSP,2013-08-29 02:32:00,
2013-08-28 19:37:00,75.4,62.3,29.87,North,0,0.0,0.0,64,0.00,,,0.18,WUHU21623XXSP,2013-08-29 02:37:00,
2013-08-28 19:42:00,75.0,62.4,29.87,North,0,0.0,0.0,65,0.00,,,0.18,WUHU21623XXSP,2013-08-29 02:42:00,
2013-08-28 19:47:00,74.5,62.3,29.87,North,0,0.0,0.0,66,0.00,,,0.18,WUHU21623XXSP,2013-08-29 02:47:00,
2013-08-28 19:52:00,73.9,62.3,29.87,North,0,0.0,0.0,67,0.00,,,0.18,WUHU21623XXSP,2013-08-29 02:52:00,
2013-08-28 19:57:00,73.6,62.4,29.87,North,0,0.0,0.0,68,0.00,,,0.18,WUHU21623XXSP,2013-08-29 02:57:00,
2013-08-28 20:02:00,73.2,62.1,29.87,North,0,0.0,0.0,68,0.00,,,0.18,WUHU21623XXSP,2013-08-29 03:02:00,
2013-08-28 20:07:00,73.0,61.9,29.87,North,0,0.0,0.0,68,0.00,,,0.18,WUHU21623XXSP,2013-08-29 03:07:00,
2013-08-28 20:12:00,72.5,61.8,29.87,North,0,0.0,0.0,69,0.00,,,0.18,WUHU21623XXSP,2013-08-29 03:12:00,
2013-08-28 20:18:00,72.3,61.6,29.87,North,0,0.0,0.0,69,0.00,,,0.18,WUHU21623XXSP,2013-08-29 03:18:00,
2013-08-28 20:23:00,72.0,61.7,29.88,North,0,0.0,0.0,70,0.00,,,0.18,WUHU21623XXSP,2013-08-29 03:23:00,
2013-08-28 20:28:00,71.8,61.9,29.88,North,0,0.0,0.0,71,0.00,,,0.18,WUHU21623XXSP,2013-08-29 03:28:00,
2013-08-28 20:33:00,71.4,61.5,29.88,North,0,0.0,0.0,71,0.00,,,0.18,WUHU21623XXSP,2013-08-29 03:33:00,
2013-08-28 20:38:00,71.2,61.7,29.88,North,0,0.0,0.0,72,0.00,,,0.18,WUHU21623XXSP,2013-08-29 03:38:00,
2013-08-28 20:43:00,70.9,61.4,29.89,North,0,0.0,0.0,72,0.00,,,0.18,WUHU21623XXSP,2013-08-29 03:43:00,
2013-08-28 20:48:00,70.7,61.6,29.88,North,0,0.0,0.0,73,0.00,,,0.18,WUHU21623XXSP,2013-08-29 03:48:00,
2013-08-28 20:53:00,70.5,61.4,29.88,North,0,0.0,0.0,73,0.00,,,0.18,WUHU21623XXSP,2013-08-29 03:53:00,
2013-08-28 20:58:00,70.3,61.2,29.88,North,0,0.0,0.0,73,0.00,,,0.18,WUHU21623XXSP,2013-08-29 03:58:00,
2013-08-28 21:01:00,70.2,61.4,29.88,North,0,0.0,0.0,74,0.00,,,0.18,WUHU21623XXSP,2013-08-29 04:01:00,
2013-08-28 21:06:00,70.0,61.2,29.89,North,0,0.0,0.0,74,0.00,,,0.18,WUHU21623XXSP,2013-08-29 04:06:00,
2013-08-28 21:11:00,69.8,61.4,29.88,North,0,0.0,0.0,75,0.00,,,0.18,WUHU21623XXSP,2013-08-29 04:11:00,
2013-08-28 21:16:00,69.6,61.6,29.89,North,0,0.0,0.0,76,0.00,,,0.18,WUHU21623XXSP,2013-08-29 04:16:00,
2013-08-28 21:21:00,69.4,61.5,29.89,North,0,0.0,0.0,76,0.00,,,0.18,WUHU21623XXSP,2013-08-29 04:21:00,
2013-08-28 21:26:00,69.1,61.5,29.89,North,0,0.0,0.0,77,0.00,,,0.18,WUHU21623XXSP,2013-08-29 04:26:00,
2013-08-28 21:31:00,69.1,61.5,29.89,North,0,0.0,0.0,77,0.00,,,0.18,WUHU21623XXSP,2013-08-29 04:31:00,
2013-08-28 21:36:00,68.9,61.4,29.89,North,0,0.0,0.0,77,0.00,,,0.18,WUHU21623XXSP,2013-08-29 04:36:00,
2013-08-28 21:41:00,68.7,61.2,29.89,North,0,0.0,0.0,77,0.00,,,0.18,WUHU21623XXSP,2013-08-29 04:41:00,
2013-08-28 21:46:00,68.7,61.2,29.89,North,0,0.0,0.0,77,0.00,,,0.18,WUHU21623XXSP,2013-08-29 04:46:00,
2013-08-28 21:51:00,68.5,61.4,29.89,North,0,0.0,0.0,78,0.00,,,0.18,WUHU21623XXSP,2013-08-29 04:51:00,
2013-08-28 21:56:00,68.4,61.3,29.89,North,0,0.0,0.0,78,0.00,,,0.18,WUHU21623XXSP,2013-08-29 04:56:00,
2013-08-28 22:01:00,68.2,61.5,29.89,North,0,0.0,0.0,79,0.00,,,0.18,WUHU21623XXSP,2013-08-29 05:01:00,
2013-08-28 22:06:00,68.2,61.9,29.89,North,0,0.0,0.0,80,0.00,,,0.18,WUHU21623XXSP,2013-08-29 05:06:00,
2013-08-28 22:11:00,67.8,61.8,29.89,North,0,0.0,0.0,81,0.00,,,0.18,WUHU21623XXSP,2013-08-29 05:11:00,
2013-08-28 22:16:00,67.8,61.8,29.90,North,0,0.0,0.0,81,0.00,,,0.18,WUHU21623XXSP,2013-08-29 05:16:00,
2013-08-28 22:21:00,67.6,61.7,29.90,North,0,0.0,0.0,81,0.00,,,0.18,WUHU21623XXSP,2013-08-29 05:21:00,
2013-08-28 22:27:00,67.6,61.7,29.91,North,0,0.0,0.0,81,0.00,,,0.18,WUHU21623XXSP,2013-08-29 05:27:00,
2013-08-28 22:31:00,67.3,61.3,29.90,North,0,0.0,0.0,81,0.00,,,0.18,WUHU21623XXSP,2013-08-29 05:31:00,
2013-08-28 22:36:00,67.1,61.4,29.90,North,0,0.0,0.0,82,0.00,,,0.18,WUHU21623XXSP,2013-08-29 05:36:00,
2013-08-28 22:41:00,67.1,61.4,29.90,North,0,0.0,0.0,82,0.00,,,0.18,WUHU21623XXSP,2013-08-29 05:41:00,
2013-08-28 22:47:00,66.9,61.3,29.89,North,0,0.0,0.0,82,0.00,,,0.18,WUHU21623XXSP,2013-08-29 05:47:00,
2013-08-28 22:52:00,66.9,61.6,29.89,North,0,0.0,0.0,83,0.00,,,0.18,WUHU21623XXSP,2013-08-29 05:52:00,
2013-08-28 22:57:00,66.7,61.7,29.89,North,0,0.0,0.0,84,0.00,,,0.18,WUHU21623XXSP,2013-08-29 05:57:00,
2013-08-28 23:02:00,66.7,61.7,29.88,North,0,0.0,0.0,84,0.00,,,0.18,WUHU21623XXSP,2013-08-29 06:02:00,
2013-08-28 23:07:00,66.6,61.6,29.89,North,0,0.0,0.0,84,0.00,,,0.18,WUHU21623XXSP,2013-08-29 06:07:00,
2013-08-28 23:12:00,66.4,61.4,29.89,North,0,0.0,0.0,84,0.00,,,0.18,WUHU21623XXSP,2013-08-29 06:12:00,
2013-08-28 23:17:00,66.4,61.4,29.89,North,0,0.0,0.0,84,0.00,,,0.18,WUHU21623XXSP,2013-08-29 06:17:00,
2013-08-28 23:22:00,66.2,61.2,29.89,North,0,0.0,0.0,84,0.00,,,0.18,WUHU21623XXSP,2013-08-29 06:22:00,
2013-08-28 23:27:00,66.0,61.0,29.89,North,0,0.0,0.0,84,0.00,,,0.18,WUHU21623XXSP,2013-08-29 06:27:00,
2013-08-28 23:32:00,66.0,61.3,29.89,North,0,0.0,0.0,85,0.00,,,0.18,WUHU21623XXSP,2013-08-29 06:32:00,
2013-08-28 23:37:00,65.8,61.2,29.89,North,0,0.0,0.0,85,0.00,,,0.18,WUHU21623XXSP,2013-08-29 06:37:00,
2013-08-28 23:42:00,65.8,61.2,29.89,North,0,0.0,0.0,85,0.00,,,0.18,WUHU21623XXSP,2013-08-29 06:42:00,
2013-08-28 23:47:00,65.8,61.2,29.89,North,0,0.0,0.0,85,0.00,,,0.18,WUHU21623XXSP,2013-08-29 06:47:00,
2013-08-28 23:52:00,65.8,61.2,29.88,North,0,0.0,0.0,85,0.00,,,0.18,WUHU21623XXSP,2013-08-29 06:52:00,
2013-08-28 23:57:00,65.7,61.0,29.88,NNW,337,0.0,0.0,85,0.00,,,0.18,WUHU21623XXSP,2013-08-29 06:57:00,